Latest Coastal Weather Observations for Rhyll

IDV60701

Issued at 1:45 am EDT Sunday 26 October 2014 (issued every 10 minutes, with the page automatically refreshed every 10 minutes)

About coastal observations | Map of coastal stations | Coastal observations for VIC | Marine services | Other Formats
Station Details ID: 086373 Name: RHYLL Lat: -38.46 Lon: 145.31 Height: 13.4 m
Data from the previous 72 hours. | See also: Recent months at Rhyll
Date/Time
EDT
Temp

°C
Wind Pressure Rain
since 9am
mm
Weather Cloud Vis
km
Sea
Height
m
Swell
Dir
 
Speed
knots
Gust
knots
hPa Trend Height
m
Period
s
Dir
26/01:30am 12.9 S 3 6 1014.9 - 0.0 - - - - - - -
26/01:00am 12.1 SE 2 4 1015.1 - 0.0 - - - - - - -
26/12:30am 12.4 S 3 5 1015.4 - 0.0 - - - - - - -
26/12:00am 13.3 SSW 4 7 1015.8 - 0.0 - - - - - - -
 
Date/Time
EDT
Temp

°C
Wind Pressure Rain
since 9am
mm
Weather Cloud Vis
km
Sea
Height
m
Swell
Dir
 
Speed
knots
Gust
knots
hPa Trend Height
m
Period
s
Dir
25/11:30pm 13.4 S 4 6 1016.4 - 0.0 - - - - - - -
25/11:00pm 13.5 S 4 7 1016.5 - 0.0 - - - - - - -
25/10:30pm 13.6 S 4 6 1016.5 - 0.0 - - - - - - -
25/10:00pm 13.8 S 4 7 1016.7 - 0.0 - - - - - - -
25/09:30pm 13.8 S 4 7 1016.7 - 0.0 - - - - - - -
25/09:00pm 13.8 SSW 5 8 1016.5 - 0.0 - - - - - - -
25/08:30pm 13.9 S 4 7 1016.2 - 0.0 - - - - - - -
25/08:00pm 14.1 S 5 7 1016.3 - 0.0 - - - - - - -
25/07:30pm 14.4 S 4 7 1015.9 - 0.0 - - - - - - -
25/07:00pm 14.3 S 5 9 1016.1 - 0.0 - - - - - - -
25/06:30pm 14.9 S 4 7 1015.7 - 0.0 - - - - - - -
25/06:00pm 15.2 S 4 6 1015.6 - 0.0 - - - - - - -
25/05:30pm 15.5 S 5 8 1015.6 - 0.0 - - - - - - -
25/05:00pm 15.6 S 6 10 1015.5 - 0.0 - - - - - - -
25/04:30pm 16.6 S 6 9 1015.4 - 0.0 - - - - - - -
25/04:00pm 17.4 S 5 7 1015.4 - 0.0 - - - - - - -
25/03:30pm 17.3 S 4 8 1015.7 - 0.0 - - - - - - -
25/03:00pm 16.4 S 5 8 1015.9 - 0.0 - - - - - - -
25/02:30pm 15.4 S 5 9 1016.3 - 0.0 - - - - - - -
25/02:00pm 15.6 S 4 7 1016.5 - 0.0 - - - - - - -
25/01:30pm 16.6 SE 2 3 1016.7 - 0.0 - - - - - - -
25/01:00pm 16.0 SE 2 4 1016.7 - 0.0 - - - - - - -
25/12:30pm 16.9 S 3 5 1016.9 - 0.0 - - - - - - -
25/12:00pm 17.2 S 2 5 1017.3 - 0.0 - - - - - - -
25/11:30am 17.7 S 3 6 1017.5 - 0.0 - - - - - - -
25/11:00am 16.3 SSE 3 6 1017.5 - 0.0 - - - - - - -
25/10:30am 14.9 SSW 4 6 1018.1 - 0.0 - - - - - - -
25/10:00am 15.2 SSW 4 7 1018.0 - 0.0 - - - - - - -
25/09:30am 14.7 SSW 3 6 1018.1 - 0.0 - - - - - - -
25/09:00am 14.4 SSE 2 3 1018.0 - 0.0 - - - - - - -
25/08:30am 13.4 SW 4 6 1018.2 - 0.0 - - - - - - -
25/08:00am 13.8 W 3 4 1017.9 - 0.0 - - - - - - -
25/07:30am 13.6 SW 3 5 1017.6 - 0.0 - - - - - - -
25/07:00am 12.9 SW 3 5 1017.4 - 0.0 - - - - - - -
25/06:30am 13.1 W 2 5 1017.1 - 0.0 - - - - - - -
25/06:00am 13.1 SW 3 6 1016.8 - 0.0 - - - - - - -
25/05:30am 13.4 W 2 3 1016.6 - 0.0 - - - - - - -
25/05:00am 13.2 SW 3 5 1016.3 - 0.0 - - - - - - -
25/04:30am 13.1 WSW 6 13 1016.2 - 0.0 - - - - - - -
25/04:00am 13.7 WSW 5 9 1016.2 - 0.0 - - - - - - -
25/03:30am 14.0 WSW 4 9 1016.1 - 0.0 - - - - - - -
25/03:00am 14.1 WSW 6 11 1016.2 - 0.0 - - - - - - -
25/02:30am 14.0 WSW 6 9 1016.3 - 0.0 - - - - - - -
25/02:00am 14.3 WSW 5 10 1016.4 - 0.0 - - - - - - -
25/01:30am 14.2 WSW 7 14 1016.5 - 0.0 - - - - - - -
25/01:00am 14.2 WSW 6 9 1016.6 - 0.0 - - - - - - -
25/12:30am 14.4 WSW 5 10 1016.5 - 0.0 - - - - - - -
25/12:00am 14.5 WSW 5 11 1016.3 - 0.0 - - - - - - -
 
Date/Time
EDT
Temp

°C
Wind Pressure Rain
since 9am
mm
Weather Cloud Vis
km
Sea
Height
m
Swell
Dir
 
Speed
knots
Gust
knots
hPa Trend Height
m
Period
s
Dir
24/11:30pm 14.6 WSW 5 8 1016.2 - 0.0 - - - - - - -
24/11:00pm 14.5 WSW 4 6 1016.0 - 0.0 - - - - - - -
24/10:30pm 14.5 WSW 5 10 1015.9 - 0.0 - - - - - - -
24/10:00pm 14.3 SW 4 9 1015.5 - 0.0 - - - - - - -
24/09:30pm 14.3 SW 6 10 1014.9 - 0.0 - - - - - - -
24/09:00pm 14.4 SW 7 11 1014.4 - 0.0 - - - - - - -
24/08:30pm 14.7 SW 10 15 1013.7 - 0.0 - - - - - - -
24/08:00pm 14.9 SW 11 18 1013.4 - 0.0 - - - - - - -
24/07:30pm 15.4 SW 12 19 1012.5 - 0.0 - - - - - - -
24/07:00pm 17.7 SW 10 17 1011.9 - 0.0 - - - - - - -
24/06:30pm 18.4 SW 8 12 1011.2 - 0.0 - - - - - - -
24/06:00pm 19.3 SSW 11 16 1010.4 - 0.0 - - - - - - -
24/05:30pm 20.4 SSW 9 14 1010.3 - 0.0 - - - - - - -
24/05:00pm 21.7 S 6 11 1010.0 - 0.0 - - - - - - -
24/04:30pm 22.7 S 3 4 1009.9 - 0.0 - - - - - - -
24/04:00pm 24.1 S 4 7 1010.1 - 0.0 - - - - - - -
24/03:30pm 23.9 E 3 8 1010.0 - 0.0 - - - - - - -
24/03:00pm 26.7 WSW 4 9 1010.2 - 0.0 - - - - - - -
24/02:30pm 24.8 WNW 5 9 1010.6 - 0.0 - - - - - - -
24/02:00pm 24.9 WNW 4 8 1010.6 - 0.0 - - - - - - -
24/01:30pm 23.2 NNW 4 6 1010.6 - 0.0 - - - - - - -
24/01:00pm 23.3 NNW 4 7 1010.7 - 0.0 - - - - - - -
24/12:30pm 21.6 NNW 4 6 1010.9 - 0.0 - - - - - - -
24/12:00pm 21.6 NE 2 3 1011.2 - 0.0 - - - - - - -
24/11:30am 20.2 NNE 2 3 1011.5 - 0.0 - - - - - - -
24/11:00am 20.1 ENE 1 3 1011.7 - 0.0 - - - - - - -
24/10:30am 20.2 E 2 3 1011.7 - 0.0 - - - - - - -
24/10:00am 20.5 E 4 4 1011.7 - 0.0 - - - - - - -
24/09:30am 19.6 E 3 3 1011.9 - 0.0 - - - - - - -
24/09:00am 19.1 ENE 2 3 1012.2 - 0.0 - - - - - - -
24/08:30am 17.1 N 3 4 1012.5 - 0.0 - - - - - - -
24/08:00am 16.0 N 3 4 1012.4 - 0.0 - - - - - - -
24/07:30am 15.4 NNW 3 4 1012.4 - 0.0 - - - - - - -
24/07:00am 15.2 WNW 1 2 1012.4 - 0.0 - - - - - - -
24/06:30am 14.8 CALM 0 0 1012.4 - 0.0 - - - - - - -
24/06:00am 15.2 E 1 2 1012.6 - 0.0 - - - - - - -
24/05:30am 14.5 E 1 2 1012.6 - 0.0 - - - - - - -
24/05:00am 15.4 E 3 4 1012.6 - 0.0 - - - - - - -
24/04:30am 15.6 E 4 5 1012.6 - 0.0 - - - - - - -
24/04:00am 16.1 E 5 6 1012.9 - 0.0 - - - - - - -
24/03:30am 16.4 E 7 8 1013.2 - 0.0 - - - - - - -
24/03:00am 16.3 E 8 9 1013.6 - 0.0 - - - - - - -
24/02:30am 16.1 E 9 11 1014.1 - 0.0 - - - - - - -
24/02:00am 16.2 E 11 14 1014.5 - 0.0 - - - - - - -
24/01:30am 16.3 E 12 15 1014.9 - 0.0 - - - - - - -
24/01:00am 16.2 E 12 16 1015.3 - 0.0 - - - - - - -
24/12:30am 16.1 E 11 14 1015.6 - 0.0 - - - - - - -
24/12:00am 16.0 E 11 14 1016.0 - 0.0 - - - - - - -
 
Date/Time
EDT
Temp

°C
Wind Pressure Rain
since 9am
mm
Weather Cloud Vis
km
Sea
Height
m
Swell
Dir
 
Speed
knots
Gust
knots
hPa Trend Height
m
Period
s
Dir
23/11:30pm 15.7 E 11 14 1016.1 - 0.0 - - - - - - -
23/11:00pm 15.8 E 11 13 1016.6 - 0.0 - - - - - - -
23/10:30pm 15.9 E 12 15 1016.8 - 0.0 - - - - - - -
23/10:00pm 16.0 ESE 14 17 1017.1 - 0.0 - - - - - - -
23/09:30pm 15.9 ESE 14 17 1017.2 - 0.0 - - - - - - -
23/09:00pm 16.0 E 15 18 1017.1 - 0.0 - - - - - - -
23/08:30pm 16.1 E 15 18 1017.0 - 0.0 - - - - - - -
23/08:00pm 16.0 E 16 20 1016.9 - 0.0 - - - - - - -
23/07:30pm 16.5 ESE 16 21 1017.0 - 0.0 - - - - - - -
23/07:00pm 17.1 E 16 20 1017.0 - 0.0 - - - - - - -
23/06:30pm 17.3 E 18 22 1016.7 - 0.0 - - - - - - -
23/06:00pm 17.6 E 18 21 1016.9 - 0.0 - - - - - - -
23/05:30pm 17.9 E 18 22 1017.0 - 0.0 - - - - - - -
23/05:00pm 17.9 E 18 23 1017.1 - 0.0 - - - - - - -
23/04:30pm 17.4 ESE 18 22 1017.2 - 0.0 - - - - - - -
23/04:00pm 17.1 ESE 16 22 1017.3 - 0.0 - - - - - - -
23/03:30pm 17.1 ESE 20 23 1017.6 - 0.0 - - - - - - -
23/03:00pm 17.3 ESE 18 21 1017.9 - 0.0 - - - - - - -
23/02:30pm 17.1 ESE 16 19 1018.2 - 0.0 - - - - - - -
23/02:00pm 17.3 ESE 14 17 1018.5 - 0.0 - - - - - - -
23/01:30pm 17.3 SSE 5 7 1019.0 - 0.0 - - - - - - -
23/01:00pm 17.2 S 5 7 1019.3 - 0.0 - - - - - - -
23/12:30pm 16.5 S 4 6 1019.9 - 0.0 - - - - - - -
23/12:00pm 16.2 S 1 2 1020.3 - 0.0 - - - - - - -
23/11:30am 15.8 E 2 3 1020.4 - 0.0 - - - - - - -
23/11:00am 15.2 ESE 3 4 1020.8 - 0.0 - - - - - - -
23/10:30am 15.2 E 1 2 1021.0 - 0.0 - - - - - - -
23/10:00am 14.9 CALM 0 2 1020.7 - 0.0 - - - - - - -
23/09:30am 14.7 ESE 1 3 1020.5 - 0.0 - - - - - - -
23/09:00am 14.5 S 1 3 1020.4 - 3.8 - - - - - - -
23/08:30am 14.3 S 2 3 1020.7 - 3.8 - - - - - - -
23/08:00am 13.9 SW 3 5 1020.4 - 3.8 - - - - - - -
23/07:30am 14.0 SW 4 6 1020.2 - 3.8 - - - - - - -
23/07:00am 13.9 SW 4 6 1020.0 - 3.8 - - - - - - -
23/06:30am 13.8 SW 6 9 1019.6 - 3.8 - - - - - - -
23/06:00am 13.8 SW 5 8 1019.1 - 3.8 - - - - - - -
23/05:30am 13.7 SW 6 12 1018.7 - 3.8 - - - - - - -
23/05:00am 14.0 SW 8 13 1018.3 - 3.8 - - - - - - -
23/04:30am 14.1 SSW 6 10 1018.2 - 3.8 - - - - - - -
23/04:00am 14.1 SW 6 9 1018.2 - 3.8 - - - - - - -
23/03:30am 14.0 SW 4 6 1018.4 - 3.8 - - - - - - -
23/03:00am 14.0 W 5 7 1018.4 - 3.8 - - - - - - -
23/02:30am 14.2 W 5 7 1018.5 - 3.8 - - - - - - -
23/02:00am 14.4 W 6 9 1018.2 - 3.8 - - - - - - -

Other Formats:

Comma delimited format used in spreadsheet applications
http://www.bom.gov.au/fwo/IDV60701/IDV60701.94892.axf

JavaScript Object Notation format (JSON) in row-major order
http://www.bom.gov.au/fwo/IDV60701/IDV60701.94892.json